sensor_id;sensor_type;location;lat;lon;timestamp;pressure;altitude;pressure_sealevel;temperature;humidity
22550;BME280;11441;57.164;-2.120;2022-07-25T00:02:26;99317.66;;;16.82;100.00
22550;BME280;11441;57.164;-2.120;2022-07-25T00:04:53;99316.69;;;16.92;100.00
22550;BME280;11441;57.164;-2.120;2022-07-25T00:07:20;99314.69;;;16.92;100.00
22550;BME280;11441;57.164;-2.120;2022-07-25T00:09:47;99316.69;;;17.08;100.00
22550;BME280;11441;57.164;-2.120;2022-07-25T00:12:14;99308.50;;;16.85;100.00
22550;BME280;11441;57.164;-2.120;2022-07-25T00:14:41;99315.84;;;17.11;100.00
22550;BME280;11441;57.164;-2.120;2022-07-25T00:17:08;99309.06;;;17.12;100.00
22550;BME280;11441;57.164;-2.120;2022-07-25T00:19:35;99313.06;;;17.11;100.00
22550;BME280;11441;57.164;-2.120;2022-07-25T00:22:02;99312.53;;;17.00;100.00
22550;BME280;11441;57.164;-2.120;2022-07-25T00:24:29;99311.63;;;17.03;100.00
22550;BME280;11441;57.164;-2.120;2022-07-25T00:27:15;99313.22;;;16.88;100.00
22550;BME280;11441;57.164;-2.120;2022-07-25T00:29:41;99325.97;;;16.65;100.00
22550;BME280;11441;57.164;-2.120;2022-07-25T00:32:08;99312.28;;;16.74;100.00
22550;BME280;11441;57.164;-2.120;2022-07-25T00:34:53;99322.19;;;16.75;100.00
22550;BME280;11441;57.164;-2.120;2022-07-25T00:37:20;99318.09;;;16.80;100.00
22550;BME280;11441;57.164;-2.120;2022-07-25T00:39:47;99324.09;;;16.78;100.00
22550;BME280;11441;57.164;-2.120;2022-07-25T00:42:14;99317.09;;;16.90;100.00
22550;BME280;11441;57.164;-2.120;2022-07-25T00:44:41;99312.41;;;16.87;100.00
22550;BME280;11441;57.164;-2.120;2022-07-25T00:47:08;99327.97;;;16.85;100.00
22550;BME280;11441;57.164;-2.120;2022-07-25T00:49:54;99331.56;;;16.82;100.00
22550;BME280;11441;57.164;-2.120;2022-07-25T00:52:39;99324.63;;;16.53;100.00
22550;BME280;11441;57.164;-2.120;2022-07-25T00:55:07;99333.31;;;16.55;100.00
22550;BME280;11441;57.164;-2.120;2022-07-25T00:57:34;99328.41;;;16.43;100.00
22550;BME280;11441;57.164;-2.120;2022-07-25T01:00:02;99325.28;;;16.41;100.00
22550;BME280;11441;57.164;-2.120;2022-07-25T01:02:29;99332.09;;;16.36;100.00
22550;BME280;11441;57.164;-2.120;2022-07-25T01:04:56;99330.56;;;16.35;100.00
22550;BME280;11441;57.164;-2.120;2022-07-25T01:07:24;99330.50;;;16.39;100.00
22550;BME280;11441;57.164;-2.120;2022-07-25T01:09:52;99328.84;;;16.42;100.00
22550;BME280;11441;57.164;-2.120;2022-07-25T01:12:19;99339.09;;;16.25;100.00
22550;BME280;11441;57.164;-2.120;2022-07-25T01:14:46;99327.56;;;16.26;100.00
22550;BME280;11441;57.164;-2.120;2022-07-25T01:17:13;99328.13;;;16.17;100.00
22550;BME280;11441;57.164;-2.120;2022-07-25T01:19:40;99326.84;;;16.22;100.00
22550;BME280;11441;57.164;-2.120;2022-07-25T01:22:07;99328.03;;;16.21;100.00
22550;BME280;11441;57.164;-2.120;2022-07-25T01:24:34;99333.19;;;16.23;100.00
22550;BME280;11441;57.164;-2.120;2022-07-25T01:27:01;99333.09;;;16.26;100.00
22550;BME280;11441;57.164;-2.120;2022-07-25T01:29:28;99344.94;;;16.30;100.00
22550;BME280;11441;57.164;-2.120;2022-07-25T01:31:55;99341.59;;;16.39;100.00
22550;BME280;11441;57.164;-2.120;2022-07-25T01:34:22;99338.59;;;16.30;100.00
22550;BME280;11441;57.164;-2.120;2022-07-25T01:36:49;99343.00;;;16.27;100.00
22550;BME280;11441;57.164;-2.120;2022-07-25T01:39:16;99347.59;;;16.37;100.00
22550;BME280;11441;57.164;-2.120;2022-07-25T01:41:43;99351.66;;;16.53;100.00
22550;BME280;11441;57.164;-2.120;2022-07-25T01:44:10;99347.50;;;16.41;100.00
22550;BME280;11441;57.164;-2.120;2022-07-25T01:46:37;99347.38;;;16.48;100.00
22550;BME280;11441;57.164;-2.120;2022-07-25T01:49:04;99348.28;;;16.62;100.00
22550;BME280;11441;57.164;-2.120;2022-07-25T01:51:50;99353.97;;;16.74;100.00
22550;BME280;11441;57.164;-2.120;2022-07-25T01:54:17;99354.81;;;16.71;100.00
22550;BME280;11441;57.164;-2.120;2022-07-25T01:56:45;99350.50;;;16.70;100.00
22550;BME280;11441;57.164;-2.120;2022-07-25T01:59:14;99351.00;;;16.65;100.00
22550;BME280;11441;57.164;-2.120;2022-07-25T02:01:41;99338.22;;;16.68;100.00
22550;BME280;11441;57.164;-2.120;2022-07-25T02:04:09;99349.34;;;16.68;100.00
22550;BME280;11441;57.164;-2.120;2022-07-25T02:06:36;99360.59;;;16.61;100.00
22550;BME280;11441;57.164;-2.120;2022-07-25T02:09:03;99347.22;;;16.55;100.00
22550;BME280;11441;57.164;-2.120;2022-07-25T02:11:30;99351.22;;;16.34;100.00
22550;BME280;11441;57.164;-2.120;2022-07-25T02:14:16;99356.34;;;16.36;100.00
22550;BME280;11441;57.164;-2.120;2022-07-25T02:16:43;99363.16;;;16.31;100.00
22550;BME280;11441;57.164;-2.120;2022-07-25T02:19:10;99364.50;;;16.03;100.00
22550;BME280;11441;57.164;-2.120;2022-07-25T02:21:37;99371.66;;;16.00;100.00
22550;BME280;11441;57.164;-2.120;2022-07-25T02:24:04;99362.13;;;16.01;100.00
22550;BME280;11441;57.164;-2.120;2022-07-25T02:26:32;99364.44;;;15.83;100.00
22550;BME280;11441;57.164;-2.120;2022-07-25T02:28:59;99365.09;;;15.91;100.00
22550;BME280;11441;57.164;-2.120;2022-07-25T02:31:26;99359.25;;;15.85;100.00
22550;BME280;11441;57.164;-2.120;2022-07-25T02:33:53;99363.16;;;15.88;100.00
22550;BME280;11441;57.164;-2.120;2022-07-25T02:36:20;99358.41;;;15.88;100.00
22550;BME280;11441;57.164;-2.120;2022-07-25T02:38:47;99367.94;;;15.87;100.00
22550;BME280;11441;57.164;-2.120;2022-07-25T02:41:14;99357.50;;;15.71;100.00
22550;BME280;11441;57.164;-2.120;2022-07-25T02:43:41;99351.81;;;15.55;100.00
22550;BME280;11441;57.164;-2.120;2022-07-25T02:46:08;99352.47;;;15.62;100.00
22550;BME280;11441;57.164;-2.120;2022-07-25T02:48:35;99348.78;;;15.69;100.00
22550;BME280;11441;57.164;-2.120;2022-07-25T02:51:02;99349.91;;;15.75;100.00
22550;BME280;11441;57.164;-2.120;2022-07-25T02:53:29;99343.16;;;15.76;100.00
22550;BME280;11441;57.164;-2.120;2022-07-25T02:56:16;99350.00;;;15.68;100.00
22550;BME280;11441;57.164;-2.120;2022-07-25T02:58:46;99349.94;;;15.72;100.00
22550;BME280;11441;57.164;-2.120;2022-07-25T03:01:13;99351.91;;;15.75;100.00
22550;BME280;11441;57.164;-2.120;2022-07-25T03:03:40;99350.72;;;15.72;100.00
22550;BME280;11441;57.164;-2.120;2022-07-25T03:06:07;99352.00;;;15.68;100.00
22550;BME280;11441;57.164;-2.120;2022-07-25T03:08:34;99354.56;;;15.55;100.00
22550;BME280;11441;57.164;-2.120;2022-07-25T03:11:01;99345.34;;;15.61;100.00
22550;BME280;11441;57.164;-2.120;2022-07-25T03:13:29;99352.09;;;15.60;100.00
22550;BME280;11441;57.164;-2.120;2022-07-25T03:15:55;99338.91;;;15.68;100.00
22550;BME280;11441;57.164;-2.120;2022-07-25T03:18:23;99347.53;;;15.74;100.00
22550;BME280;11441;57.164;-2.120;2022-07-25T03:20:49;99350.19;;;15.81;100.00
22550;BME280;11441;57.164;-2.120;2022-07-25T03:23:16;99343.63;;;15.71;100.00
22550;BME280;11441;57.164;-2.120;2022-07-25T03:25:43;99339.09;;;15.81;100.00
22550;BME280;11441;57.164;-2.120;2022-07-25T03:28:10;99327.88;;;15.64;100.00
22550;BME280;11441;57.164;-2.120;2022-07-25T03:30:37;99352.19;;;15.80;100.00
22550;BME280;11441;57.164;-2.120;2022-07-25T03:33:04;99350.53;;;15.59;100.00
22550;BME280;11441;57.164;-2.120;2022-07-25T03:35:49;99349.72;;;15.62;100.00
22550;BME280;11441;57.164;-2.120;2022-07-25T03:38:16;99351.19;;;15.67;100.00
22550;BME280;11441;57.164;-2.120;2022-07-25T03:40:43;99347.94;;;15.72;100.00
22550;BME280;11441;57.164;-2.120;2022-07-25T03:43:10;99345.44;;;15.81;100.00
22550;BME280;11441;57.164;-2.120;2022-07-25T03:45:37;99353.19;;;15.67;100.00
22550;BME280;11441;57.164;-2.120;2022-07-25T03:48:04;99344.50;;;15.64;100.00
22550;BME280;11441;57.164;-2.120;2022-07-25T03:50:31;99344.44;;;15.68;100.00
22550;BME280;11441;57.164;-2.120;2022-07-25T03:52:58;99347.16;;;15.72;100.00
22550;BME280;11441;57.164;-2.120;2022-07-25T03:55:25;99357.19;;;15.89;100.00
22550;BME280;11441;57.164;-2.120;2022-07-25T03:57:52;99354.16;;;16.03;100.00
22550;BME280;11441;57.164;-2.120;2022-07-25T04:00:19;99355.19;;;16.13;100.00
22550;BME280;11441;57.164;-2.120;2022-07-25T04:02:45;99365.44;;;16.16;100.00
22550;BME280;11441;57.164;-2.120;2022-07-25T04:05:13;99354.63;;;16.22;100.00
22550;BME280;11441;57.164;-2.120;2022-07-25T04:07:40;99351.06;;;16.21;100.00
22550;BME280;11441;57.164;-2.120;2022-07-25T04:10:07;99355.31;;;16.26;100.00
22550;BME280;11441;57.164;-2.120;2022-07-25T04:12:34;99354.13;;;16.27;100.00
22550;BME280;11441;57.164;-2.120;2022-07-25T04:15:01;99352.28;;;16.20;100.00
22550;BME280;11441;57.164;-2.120;2022-07-25T04:17:28;99356.03;;;16.10;100.00
22550;BME280;11441;57.164;-2.120;2022-07-25T04:19:55;99361.16;;;16.12;100.00
22550;BME280;11441;57.164;-2.120;2022-07-25T04:22:22;99352.69;;;16.19;100.00
22550;BME280;11441;57.164;-2.120;2022-07-25T04:24:50;99361.22;;;16.28;100.00
22550;BME280;11441;57.164;-2.120;2022-07-25T04:27:16;99364.25;;;16.37;100.00
22550;BME280;11441;57.164;-2.120;2022-07-25T04:29:43;99369.00;;;16.37;100.00
22550;BME280;11441;57.164;-2.120;2022-07-25T04:32:10;99373.78;;;16.36;100.00
22550;BME280;11441;57.164;-2.120;2022-07-25T04:34:37;99373.78;;;16.36;100.00
22550;BME280;11441;57.164;-2.120;2022-07-25T04:37:04;99362.75;;;16.33;100.00
22550;BME280;11441;57.164;-2.120;2022-07-25T04:39:31;99366.97;;;16.41;100.00
22550;BME280;11441;57.164;-2.120;2022-07-25T04:41:58;99371.84;;;16.33;100.00
22550;BME280;11441;57.164;-2.120;2022-07-25T04:44:25;99371.00;;;16.16;100.00
22550;BME280;11441;57.164;-2.120;2022-07-25T04:46:52;99377.03;;;16.11;100.00
22550;BME280;11441;57.164;-2.120;2022-07-25T04:49:19;99377.59;;;16.02;100.00
22550;BME280;11441;57.164;-2.120;2022-07-25T04:51:46;99376.16;;;15.94;100.00
22550;BME280;11441;57.164;-2.120;2022-07-25T04:54:30;99376.84;;;16.22;100.00
22550;BME280;11441;57.164;-2.120;2022-07-25T04:56:57;99378.28;;;16.30;100.00
22550;BME280;11441;57.164;-2.120;2022-07-25T04:59:24;99376.34;;;16.27;100.00
22550;BME280;11441;57.164;-2.120;2022-07-25T05:01:51;99382.53;;;16.15;100.00
22550;BME280;11441;57.164;-2.120;2022-07-25T05:04:18;99371.34;;;16.18;100.00
22550;BME280;11441;57.164;-2.120;2022-07-25T05:06:45;99385.53;;;16.24;100.00
22550;BME280;11441;57.164;-2.120;2022-07-25T05:09:30;99381.34;;;16.36;100.00
22550;BME280;11441;57.164;-2.120;2022-07-25T05:11:57;99376.13;;;16.38;100.00
22550;BME280;11441;57.164;-2.120;2022-07-25T05:14:24;99385.75;;;16.53;100.00
22550;BME280;11441;57.164;-2.120;2022-07-25T05:16:51;99387.13;;;16.65;100.00
22550;BME280;11441;57.164;-2.120;2022-07-25T05:19:18;99379.91;;;16.68;100.00
22550;BME280;11441;57.164;-2.120;2022-07-25T05:21:45;99382.69;;;16.68;100.00
22550;BME280;11441;57.164;-2.120;2022-07-25T05:24:12;99387.63;;;16.60;100.00
22550;BME280;11441;57.164;-2.120;2022-07-25T05:26:39;99382.31;;;16.46;100.00
22550;BME280;11441;57.164;-2.120;2022-07-25T05:29:06;99392.53;;;16.52;100.00
22550;BME280;11441;57.164;-2.120;2022-07-25T05:31:33;99383.91;;;16.67;100.00
22550;BME280;11441;57.164;-2.120;2022-07-25T05:34:00;99385.59;;;16.81;100.00
22550;BME280;11441;57.164;-2.120;2022-07-25T05:36:26;99384.19;;;16.72;100.00
22550;BME280;11441;57.164;-2.120;2022-07-25T05:38:53;99388.72;;;16.86;100.00
22550;BME280;11441;57.164;-2.120;2022-07-25T05:41:21;99389.06;;;16.88;100.00
22550;BME280;11441;57.164;-2.120;2022-07-25T05:43:48;99395.50;;;16.82;100.00
22550;BME280;11441;57.164;-2.120;2022-07-25T05:46:15;99394.09;;;16.93;100.00
22550;BME280;11441;57.164;-2.120;2022-07-25T05:48:59;99389.16;;;17.01;100.00
22550;BME280;11441;57.164;-2.120;2022-07-25T05:51:27;99399.91;;;17.19;100.00
22550;BME280;11441;57.164;-2.120;2022-07-25T05:53:54;99395.63;;;17.14;100.00
22550;BME280;11441;57.164;-2.120;2022-07-25T05:56:21;99389.16;;;17.01;100.00
22550;BME280;11441;57.164;-2.120;2022-07-25T05:58:48;99402.41;;;17.13;100.00
22550;BME280;11441;57.164;-2.120;2022-07-25T06:01:15;99410.88;;;16.90;100.00
22550;BME280;11441;57.164;-2.120;2022-07-25T06:03:43;99406.94;;;17.07;100.00
22550;BME280;11441;57.164;-2.120;2022-07-25T06:06:10;99410.06;;;17.09;100.00
22550;BME280;11441;57.164;-2.120;2022-07-25T06:08:37;99410.13;;;17.06;100.00
22550;BME280;11441;57.164;-2.120;2022-07-25T06:11:05;99415.38;;;17.20;100.00
22550;BME280;11441;57.164;-2.120;2022-07-25T06:13:35;99416.03;;;17.08;100.00
22550;BME280;11441;57.164;-2.120;2022-07-25T06:16:01;99429.38;;;17.17;100.00
22550;BME280;11441;57.164;-2.120;2022-07-25T06:18:29;99427.50;;;17.30;100.00
22550;BME280;11441;57.164;-2.120;2022-07-25T06:20:56;99429.84;;;17.31;100.00
22550;BME280;11441;57.164;-2.120;2022-07-25T06:23:23;99428.78;;;17.25;100.00
22550;BME280;11441;57.164;-2.120;2022-07-25T06:25:53;99434.72;;;17.44;100.00
22550;BME280;11441;57.164;-2.120;2022-07-25T06:28:20;99436.56;;;17.50;100.00
22550;BME280;11441;57.164;-2.120;2022-07-25T06:30:47;99432.72;;;17.44;100.00
22550;BME280;11441;57.164;-2.120;2022-07-25T06:33:14;99444.69;;;17.25;100.00
22550;BME280;11441;57.164;-2.120;2022-07-25T06:35:41;99447.47;;;17.25;100.00
22550;BME280;11441;57.164;-2.120;2022-07-25T06:38:08;99455.41;;;17.26;100.00
22550;BME280;11441;57.164;-2.120;2022-07-25T06:40:34;99453.88;;;17.42;100.00
22550;BME280;11441;57.164;-2.120;2022-07-25T06:43:01;99451.16;;;17.38;100.00
22550;BME280;11441;57.164;-2.120;2022-07-25T06:45:28;99467.44;;;17.56;100.00
22550;BME280;11441;57.164;-2.120;2022-07-25T06:47:55;99467.13;;;17.70;100.00
22550;BME280;11441;57.164;-2.120;2022-07-25T06:50:22;99465.94;;;17.88;100.00
22550;BME280;11441;57.164;-2.120;2022-07-25T06:52:49;99471.56;;;17.68;100.00
22550;BME280;11441;57.164;-2.120;2022-07-25T06:55:16;99480.69;;;17.85;100.00
22550;BME280;11441;57.164;-2.120;2022-07-25T06:57:43;99486.88;;;17.76;100.00
22550;BME280;11441;57.164;-2.120;2022-07-25T07:00:12;99492.41;;;17.96;100.00
22550;BME280;11441;57.164;-2.120;2022-07-25T07:05:44;99487.69;;;17.93;100.00
22550;BME280;11441;57.164;-2.120;2022-07-25T07:08:11;99495.00;;;18.03;100.00
22550;BME280;11441;57.164;-2.120;2022-07-25T07:10:38;99501.88;;;17.99;100.00
22550;BME280;11441;57.164;-2.120;2022-07-25T07:13:10;99499.41;;;17.68;100.00
22550;BME280;11441;57.164;-2.120;2022-07-25T07:15:43;99502.63;;;17.83;100.00
22550;BME280;11441;57.164;-2.120;2022-07-25T07:18:11;99504.59;;;17.86;100.00
22550;BME280;11441;57.164;-2.120;2022-07-25T07:20:55;99508.97;;;17.83;100.00
22550;BME280;11441;57.164;-2.120;2022-07-25T07:23:22;99519.19;;;17.90;100.00
22550;BME280;11441;57.164;-2.120;2022-07-25T07:25:50;99516.91;;;17.85;100.00
22550;BME280;11441;57.164;-2.120;2022-07-25T07:28:17;99524.88;;;18.03;100.00
22550;BME280;11441;57.164;-2.120;2022-07-25T07:30:44;99520.16;;;18.00;100.00
22550;BME280;11441;57.164;-2.120;2022-07-25T07:33:31;99518.06;;;17.87;100.00
22550;BME280;11441;57.164;-2.120;2022-07-25T07:36:00;99533.31;;;17.99;100.00
22550;BME280;11441;57.164;-2.120;2022-07-25T07:38:27;99533.84;;;18.11;100.00
22550;BME280;11441;57.164;-2.120;2022-07-25T07:40:54;99527.66;;;18.19;100.00
22550;BME280;11441;57.164;-2.120;2022-07-25T07:43:21;99533.06;;;18.10;100.00
22550;BME280;11441;57.164;-2.120;2022-07-25T07:45:55;99534.19;;;17.96;100.00
22550;BME280;11441;57.164;-2.120;2022-07-25T07:48:29;99543.88;;;18.08;100.00
22550;BME280;11441;57.164;-2.120;2022-07-25T07:50:57;99542.84;;;17.82;100.00
22550;BME280;11441;57.164;-2.120;2022-07-25T07:53:25;99547.59;;;18.01;100.00
22550;BME280;11441;57.164;-2.120;2022-07-25T07:56:13;99550.13;;;18.12;100.00
22550;BME280;11441;57.164;-2.120;2022-07-25T07:58:40;99560.84;;;17.77;100.00
22550;BME280;11441;57.164;-2.120;2022-07-25T08:01:26;99566.69;;;17.83;100.00
22550;BME280;11441;57.164;-2.120;2022-07-25T08:04:12;99568.03;;;17.75;100.00
22550;BME280;11441;57.164;-2.120;2022-07-25T08:06:39;99569.19;;;17.77;100.00
22550;BME280;11441;57.164;-2.120;2022-07-25T08:09:08;99558.28;;;17.66;100.00
22550;BME280;11441;57.164;-2.120;2022-07-25T08:11:36;99563.06;;;17.86;100.00
22550;BME280;11441;57.164;-2.120;2022-07-25T08:14:02;99572.31;;;17.79;100.00
22550;BME280;11441;57.164;-2.120;2022-07-25T08:16:32;99568.78;;;17.59;100.00
22550;BME280;11441;57.164;-2.120;2022-07-25T08:18:59;99577.63;;;17.74;100.00
22550;BME280;11441;57.164;-2.120;2022-07-25T08:21:26;99588.00;;;17.73;100.00
22550;BME280;11441;57.164;-2.120;2022-07-25T08:23:53;99589.44;;;17.61;100.00
22550;BME280;11441;57.164;-2.120;2022-07-25T08:26:20;99591.22;;;17.51;100.00
22550;BME280;11441;57.164;-2.120;2022-07-25T08:28:47;99611.91;;;17.30;100.00
22550;BME280;11441;57.164;-2.120;2022-07-25T08:31:34;99610.13;;;17.20;100.00
22550;BME280;11441;57.164;-2.120;2022-07-25T08:34:01;99632.09;;;16.91;100.00
22550;BME280;11441;57.164;-2.120;2022-07-25T08:36:28;99631.03;;;16.57;100.00
22550;BME280;11441;57.164;-2.120;2022-07-25T08:39:00;99638.84;;;16.43;100.00
22550;BME280;11441;57.164;-2.120;2022-07-25T08:41:27;99646.22;;;16.53;100.00
22550;BME280;11441;57.164;-2.120;2022-07-25T08:43:54;99651.66;;;16.06;100.00
22550;BME280;11441;57.164;-2.120;2022-07-25T08:46:22;99655.81;;;16.21;100.00
22550;BME280;11441;57.164;-2.120;2022-07-25T08:49:26;99679.47;;;16.02;100.00
22550;BME280;11441;57.164;-2.120;2022-07-25T08:51:55;99688.19;;;16.04;100.00
22550;BME280;11441;57.164;-2.120;2022-07-25T08:54:22;99691.50;;;15.92;100.00
22550;BME280;11441;57.164;-2.120;2022-07-25T08:56:50;99696.03;;;15.78;100.00
22550;BME280;11441;57.164;-2.120;2022-07-25T08:59:17;99700.72;;;16.16;100.00
22550;BME280;11441;57.164;-2.120;2022-07-25T09:01:44;99699.63;;;16.10;100.00
22550;BME280;11441;57.164;-2.120;2022-07-25T09:04:11;99711.41;;;16.17;100.00
22550;BME280;11441;57.164;-2.120;2022-07-25T09:06:51;99727.50;;;16.02;100.00
22550;BME280;11441;57.164;-2.120;2022-07-25T09:09:18;99731.03;;;15.65;100.00
22550;BME280;11441;57.164;-2.120;2022-07-25T09:11:44;99736.94;;;15.71;100.00
22550;BME280;11441;57.164;-2.120;2022-07-25T09:14:11;99730.34;;;15.57;100.00
22550;BME280;11441;57.164;-2.120;2022-07-25T09:16:43;99742.47;;;15.71;100.00
22550;BME280;11441;57.164;-2.120;2022-07-25T09:19:16;99749.13;;;15.84;100.00
22550;BME280;11441;57.164;-2.120;2022-07-25T09:21:56;99753.97;;;15.76;100.00
22550;BME280;11441;57.164;-2.120;2022-07-25T09:25:02;99763.88;;;15.74;100.00
22550;BME280;11441;57.164;-2.120;2022-07-25T09:27:31;99773.03;;;15.67;100.00
22550;BME280;11441;57.164;-2.120;2022-07-25T09:29:59;99781.94;;;15.51;100.00
22550;BME280;11441;57.164;-2.120;2022-07-25T09:32:27;99783.19;;;15.43;100.00
22550;BME280;11441;57.164;-2.120;2022-07-25T09:34:54;99796.00;;;15.75;100.00
22550;BME280;11441;57.164;-2.120;2022-07-25T09:37:25;99812.66;;;15.75;100.00
22550;BME280;11441;57.164;-2.120;2022-07-25T09:39:52;99800.44;;;15.65;100.00
22550;BME280;11441;57.164;-2.120;2022-07-25T09:42:29;99832.25;;;15.53;100.00
22550;BME280;11441;57.164;-2.120;2022-07-25T09:45:07;99831.88;;;15.51;100.00
22550;BME280;11441;57.164;-2.120;2022-07-25T09:47:56;99842.19;;;15.51;100.00
22550;BME280;11441;57.164;-2.120;2022-07-25T09:50:26;99832.47;;;15.77;100.00
22550;BME280;11441;57.164;-2.120;2022-07-25T09:53:11;99862.53;;;15.33;100.00
22550;BME280;11441;57.164;-2.120;2022-07-25T09:55:39;99859.81;;;15.30;100.00
22550;BME280;11441;57.164;-2.120;2022-07-25T09:58:06;99861.44;;;15.20;100.00
22550;BME280;11441;57.164;-2.120;2022-07-25T10:00:33;99878.88;;;15.24;100.00
22550;BME280;11441;57.164;-2.120;2022-07-25T10:03:22;99887.44;;;14.77;100.00
22550;BME280;11441;57.164;-2.120;2022-07-25T10:06:33;99899.25;;;14.88;100.00
22550;BME280;11441;57.164;-2.120;2022-07-25T10:09:14;99906.09;;;14.62;100.00
22550;BME280;11441;57.164;-2.120;2022-07-25T10:12:07;99911.66;;;14.62;100.00
22550;BME280;11441;57.164;-2.120;2022-07-25T10:14:35;99925.50;;;14.51;100.00
22550;BME280;11441;57.164;-2.120;2022-07-25T10:17:03;99933.06;;;14.37;100.00
22550;BME280;11441;57.164;-2.120;2022-07-25T10:19:44;99939.41;;;14.37;100.00
22550;BME280;11441;57.164;-2.120;2022-07-25T10:22:20;99936.25;;;14.39;100.00
22550;BME280;11441;57.164;-2.120;2022-07-25T10:25:15;99944.94;;;14.44;100.00
22550;BME280;11441;57.164;-2.120;2022-07-25T10:27:46;99944.13;;;14.55;100.00
22550;BME280;11441;57.164;-2.120;2022-07-25T10:30:22;99940.94;;;14.45;100.00
22550;BME280;11441;57.164;-2.120;2022-07-25T10:33:03;99957.22;;;14.36;100.00
22550;BME280;11441;57.164;-2.120;2022-07-25T10:35:32;99944.53;;;14.49;100.00
22550;BME280;11441;57.164;-2.120;2022-07-25T10:38:02;99959.94;;;14.72;100.00
22550;BME280;11441;57.164;-2.120;2022-07-25T10:40:48;99955.19;;;14.62;100.00
22550;BME280;11441;57.164;-2.120;2022-07-25T10:43:20;99970.19;;;14.79;100.00
22550;BME280;11441;57.164;-2.120;2022-07-25T10:45:54;99961.03;;;14.85;100.00
22550;BME280;11441;57.164;-2.120;2022-07-25T10:48:25;99980.00;;;15.05;100.00
22550;BME280;11441;57.164;-2.120;2022-07-25T10:53:29;99986.84;;;14.79;100.00
22550;BME280;11441;57.164;-2.120;2022-07-25T10:55:58;99989.03;;;15.16;100.00
22550;BME280;11441;57.164;-2.120;2022-07-25T10:58:49;99990.31;;;14.97;100.00
22550;BME280;11441;57.164;-2.120;2022-07-25T11:01:33;99993.03;;;15.15;100.00
22550;BME280;11441;57.164;-2.120;2022-07-25T11:04:11;100007.75;;;14.90;100.00
22550;BME280;11441;57.164;-2.120;2022-07-25T11:06:41;100013.78;;;14.67;100.00
22550;BME280;11441;57.164;-2.120;2022-07-25T11:09:18;100027.22;;;14.73;100.00
22550;BME280;11441;57.164;-2.120;2022-07-25T11:11:55;100024.09;;;14.60;100.00
22550;BME280;11441;57.164;-2.120;2022-07-25T11:14:23;100040.31;;;14.65;100.00
22550;BME280;11441;57.164;-2.120;2022-07-25T11:16:52;100045.81;;;14.79;100.00
22550;BME280;11441;57.164;-2.120;2022-07-25T11:19:26;100025.25;;;14.48;100.00
22550;BME280;11441;57.164;-2.120;2022-07-25T11:21:56;100030.78;;;14.84;100.00
22550;BME280;11441;57.164;-2.120;2022-07-25T11:24:44;100035.50;;;14.80;100.00
22550;BME280;11441;57.164;-2.120;2022-07-25T11:27:26;100029.94;;;14.87;100.00
22550;BME280;11441;57.164;-2.120;2022-07-25T11:30:15;100035.84;;;15.03;100.00
22550;BME280;11441;57.164;-2.120;2022-07-25T11:32:44;100046.84;;;15.25;100.00
22550;BME280;11441;57.164;-2.120;2022-07-25T11:35:12;100052.88;;;15.09;100.00
22550;BME280;11441;57.164;-2.120;2022-07-25T11:37:43;100066.34;;;15.07;100.00
22550;BME280;11441;57.164;-2.120;2022-07-25T11:40:32;100060.00;;;15.10;100.00
22550;BME280;11441;57.164;-2.120;2022-07-25T11:42:59;100076.19;;;15.26;100.00
22550;BME280;11441;57.164;-2.120;2022-07-25T11:45:55;100075.13;;;14.87;100.00
22550;BME280;11441;57.164;-2.120;2022-07-25T11:48:29;100093.69;;;14.90;100.00
22550;BME280;11441;57.164;-2.120;2022-07-25T11:50:57;100098.88;;;14.85;100.00
22550;BME280;11441;57.164;-2.120;2022-07-25T11:53:51;100099.69;;;14.71;100.00
22550;BME280;11441;57.164;-2.120;2022-07-25T11:56:20;100104.44;;;14.78;100.00
22550;BME280;11441;57.164;-2.120;2022-07-25T11:59:07;100106.38;;;14.95;100.00
22550;BME280;11441;57.164;-2.120;2022-07-25T12:01:38;100107.59;;;14.73;100.00
22550;BME280;11441;57.164;-2.120;2022-07-25T12:04:22;100117.47;;;14.92;100.00
22550;BME280;11441;57.164;-2.120;2022-07-25T12:06:50;100130.16;;;14.46;100.00
22550;BME280;11441;57.164;-2.120;2022-07-25T12:09:19;100138.03;;;14.37;100.00
22550;BME280;11441;57.164;-2.120;2022-07-25T12:11:47;100143.56;;;14.15;100.00
22550;BME280;11441;57.164;-2.120;2022-07-25T12:14:15;100138.06;;;14.51;100.00
22550;BME280;11441;57.164;-2.120;2022-07-25T12:16:42;100156.25;;;14.48;100.00
22550;BME280;11441;57.164;-2.120;2022-07-25T12:19:27;100141.22;;;14.53;100.00
22550;BME280;11441;57.164;-2.120;2022-07-25T12:21:54;100149.19;;;14.62;100.00
22550;BME280;11441;57.164;-2.120;2022-07-25T12:24:21;100166.59;;;14.62;100.00
22550;BME280;11441;57.164;-2.120;2022-07-25T12:26:48;100163.03;;;14.58;100.00
22550;BME280;11441;57.164;-2.120;2022-07-25T12:29:15;100167.00;;;14.75;100.00
22550;BME280;11441;57.164;-2.120;2022-07-25T12:31:42;100160.66;;;14.64;100.00
22550;BME280;11441;57.164;-2.120;2022-07-25T12:34:08;100174.50;;;14.64;100.00
22550;BME280;11441;57.164;-2.120;2022-07-25T12:36:36;100189.50;;;14.45;100.00
22550;BME280;11441;57.164;-2.120;2022-07-25T12:39:09;100170.50;;;14.40;100.00
22550;BME280;11441;57.164;-2.120;2022-07-25T12:41:36;100180.81;;;14.46;100.00
22550;BME280;11441;57.164;-2.120;2022-07-25T12:44:05;100183.19;;;14.51;100.00
22550;BME280;11441;57.164;-2.120;2022-07-25T12:46:32;100197.44;;;14.46;100.00
22550;BME280;11441;57.164;-2.120;2022-07-25T12:48:59;100186.00;;;14.73;100.00
22550;BME280;11441;57.164;-2.120;2022-07-25T12:51:26;100191.94;;;14.75;100.00
22550;BME280;11441;57.164;-2.120;2022-07-25T12:54:11;100186.75;;;15.06;100.00
22550;BME280;11441;57.164;-2.120;2022-07-25T12:56:38;100185.19;;;15.12;100.00
22550;BME280;11441;57.164;-2.120;2022-07-25T12:59:04;100187.97;;;15.12;100.00
22550;BME280;11441;57.164;-2.120;2022-07-25T13:01:50;100193.44;;;15.44;100.00